createdAt,value
2018-05-03T00:02:10.906Z,20.33
2018-05-03T00:04:38.681Z,18.83
2018-05-03T00:07:06.402Z,18.98
2018-05-03T00:09:34.171Z,20.17
2018-05-03T00:12:01.931Z,17.92
2018-05-03T00:14:29.698Z,19.35
2018-05-03T00:16:57.429Z,21.27
2018-05-03T00:19:25.183Z,19.10
2018-05-03T00:21:52.908Z,21.17
2018-05-03T00:24:20.663Z,20.17
2018-05-03T00:26:48.394Z,21.00
2018-05-03T00:29:16.193Z,19.42
2018-05-03T00:31:43.935Z,18.83
2018-05-03T00:34:11.696Z,20.15
2018-05-03T00:36:39.468Z,20.65
2018-05-03T00:39:07.200Z,19.70
2018-05-03T00:41:34.958Z,19.95
2018-05-03T00:44:02.694Z,22.62
2018-05-03T00:46:30.446Z,22.00
2018-05-03T00:48:58.970Z,22.25
2018-05-03T00:51:26.741Z,20.90
2018-05-03T00:53:54.484Z,19.90
2018-05-03T00:56:22.247Z,21.17
2018-05-03T00:58:49.975Z,18.70
2018-05-03T01:01:18.463Z,21.20
2018-05-03T01:03:46.227Z,20.90
2018-05-03T01:06:13.964Z,23.30
2018-05-03T01:08:42.503Z,23.33
2018-05-03T01:11:10.242Z,20.88
2018-05-03T01:13:38.003Z,21.65
2018-05-03T01:16:05.724Z,21.00
2018-05-03T01:18:33.487Z,21.12
2018-05-03T01:21:01.996Z,19.30
2018-05-03T01:23:29.763Z,18.80
2018-05-03T01:25:57.498Z,21.73
2018-05-03T01:28:26.026Z,20.48
2018-05-03T01:30:53.764Z,22.20
2018-05-03T01:33:21.504Z,19.75
2018-05-03T01:36:01.128Z,21.45
2018-05-03T01:38:28.857Z,21.05
2018-05-03T01:40:56.619Z,22.00
2018-05-03T01:43:24.356Z,22.55
2018-05-03T01:45:52.123Z,22.10
2018-05-03T01:48:19.863Z,22.80
2018-05-03T01:50:47.678Z,21.67
2018-05-03T01:53:15.411Z,21.20
2018-05-03T01:55:43.216Z,24.52
2018-05-03T01:58:10.944Z,22.85
2018-05-03T02:00:38.732Z,22.37
2018-05-03T02:03:06.863Z,22.73
2018-05-03T02:05:34.612Z,23.23
2018-05-03T02:08:02.375Z,23.17
2018-05-03T02:10:30.106Z,22.42
2018-05-03T02:12:58.638Z,22.35
2018-05-03T02:15:26.393Z,23.65
2018-05-03T02:17:54.159Z,22.80
2018-05-03T02:20:21.889Z,24.40
2018-05-03T02:22:49.674Z,24.33
2018-05-03T02:25:17.420Z,23.87
2018-05-03T02:27:45.982Z,24.02
2018-05-03T02:30:13.703Z,23.67
2018-05-03T02:32:41.470Z,23.73
2018-05-03T02:35:09.236Z,23.58
2018-05-03T02:37:36.959Z,26.20
2018-05-03T02:40:04.760Z,25.30
2018-05-03T02:42:32.491Z,23.90
2018-05-03T02:45:00.291Z,25.10
2018-05-03T02:47:28.038Z,24.35
2018-05-03T02:49:55.816Z,23.62
2018-05-03T02:52:24.311Z,25.40
2018-05-03T02:54:52.842Z,23.58
2018-05-03T02:57:32.320Z,25.62
2018-05-03T03:13:56.352Z,26.30
2018-05-03T03:16:41.833Z,24.80
2018-05-03T03:19:27.993Z,28.27
2018-05-03T03:22:13.235Z,26.75
2018-05-03T03:25:06.387Z,27.15
2018-05-03T03:27:52.602Z,25.08
2018-05-03T03:30:38.031Z,25.55
2018-05-03T03:33:17.570Z,27.45
2018-05-03T03:36:05.973Z,26.70
2018-05-03T03:38:45.455Z,29.48
2018-05-03T03:41:25.144Z,25.12
2018-05-03T03:44:04.721Z,27.98
2018-05-03T03:46:33.281Z,28.90
2018-05-03T03:49:01.000Z,27.02
2018-05-03T03:51:29.500Z,28.20
2018-05-03T03:53:57.251Z,28.48
2018-05-03T03:56:25.745Z,26.15
2018-05-03T03:58:53.491Z,28.70
2018-05-03T04:01:21.970Z,28.58
2018-05-03T04:03:49.767Z,27.13
2018-05-03T04:06:17.482Z,29.23
2018-05-03T04:08:46.019Z,28.75
2018-05-03T04:11:13.745Z,27.33
2018-05-03T04:13:41.480Z,25.67
2018-05-03T04:16:09.237Z,26.92
2018-05-03T04:18:48.679Z,24.83
2018-05-03T04:21:29.017Z,27.15
2018-05-03T04:24:09.298Z,26.30
2018-05-03T04:26:37.822Z,24.87
2018-05-03T04:29:05.568Z,25.83
2018-05-03T04:31:33.327Z,24.85
2018-05-03T04:34:01.050Z,23.70
2018-05-03T04:36:29.592Z,24.42
2018-05-03T04:38:57.325Z,26.08
2018-05-03T04:41:25.049Z,24.25
2018-05-03T04:43:52.809Z,24.80
2018-05-03T04:46:20.536Z,24.65
2018-05-03T04:48:48.297Z,24.83
2018-05-03T04:51:16.010Z,26.00
2018-05-03T04:53:44.568Z,25.27
2018-05-03T04:56:12.299Z,26.37
2018-05-03T04:58:40.061Z,26.12
2018-05-03T05:01:07.814Z,24.23
2018-05-03T05:03:35.569Z,23.40
2018-05-03T05:06:03.285Z,23.90
2018-05-03T05:08:31.821Z,25.40
2018-05-03T05:10:59.530Z,26.05
2018-05-03T05:13:28.012Z,25.00
2018-05-03T05:15:56.557Z,24.45
2018-05-03T05:18:24.295Z,24.27
2018-05-03T05:20:52.047Z,22.73
2018-05-03T05:23:19.782Z,23.87
2018-05-03T05:25:48.294Z,22.87
2018-05-03T05:28:16.063Z,24.00
2018-05-03T05:30:43.966Z,20.65
2018-05-03T05:33:12.285Z,22.48
2018-05-03T05:35:40.054Z,21.48
2018-05-03T05:38:07.775Z,21.15
2018-05-03T05:40:36.360Z,21.45
2018-05-03T05:43:04.862Z,20.35
2018-05-03T05:45:32.600Z,21.55
2018-05-03T05:48:01.109Z,20.20
2018-05-03T05:50:28.832Z,21.15
2018-05-03T05:52:56.592Z,19.40
2018-05-03T05:55:24.317Z,20.00
2018-05-03T05:57:52.085Z,21.90
2018-05-03T06:00:20.582Z,19.60
2018-05-03T06:02:48.332Z,19.83
2018-05-03T06:05:16.083Z,18.92
2018-05-03T06:07:43.906Z,21.42
2018-05-03T06:10:11.624Z,20.20
2018-05-03T06:12:39.396Z,19.25
2018-05-03T06:15:07.140Z,21.10
2018-05-03T06:17:34.869Z,19.48
2018-05-03T06:20:02.627Z,16.98
2018-05-03T06:22:30.339Z,22.05
2018-05-03T06:24:58.139Z,19.05
2018-05-03T06:27:25.874Z,19.83
2018-05-03T06:29:53.622Z,19.05
2018-05-03T06:32:22.160Z,17.42
2018-05-03T06:34:49.910Z,17.27
2018-05-03T06:37:17.646Z,17.23
2018-05-03T06:39:45.415Z,18.95
2018-05-03T06:42:13.144Z,19.65
2018-05-03T06:44:40.929Z,19.17
2018-05-03T06:47:09.409Z,18.97
2018-05-03T06:49:37.902Z,18.93
2018-05-03T06:52:06.412Z,18.37
2018-05-03T06:54:34.158Z,17.37
2018-05-03T06:57:01.936Z,17.77
2018-05-03T06:59:29.683Z,17.10
2018-05-03T07:01:57.453Z,17.90
2018-05-03T07:04:25.312Z,16.77
2018-05-03T07:06:53.817Z,18.40
2018-05-03T07:09:21.561Z,19.77
2018-05-03T07:11:49.323Z,17.27
2018-05-03T07:14:17.067Z,17.20
2018-05-03T07:16:44.846Z,18.97
2018-05-03T07:19:12.565Z,17.63
2018-05-03T07:21:41.117Z,17.10
2018-05-03T07:24:08.875Z,18.47
2018-05-03T07:26:36.618Z,17.73
2018-05-03T07:29:04.396Z,17.50
2018-05-03T07:31:32.157Z,16.40
2018-05-03T07:33:59.928Z,16.27
2018-05-03T07:36:27.656Z,18.27
2018-05-03T07:38:55.417Z,17.77
2018-05-03T07:41:23.192Z,18.30
2018-05-03T07:43:50.939Z,18.70
2018-05-03T07:46:18.667Z,17.50
2018-05-03T07:48:46.457Z,17.40
2018-05-03T07:51:14.176Z,15.97
2018-05-03T07:53:41.905Z,16.23
2018-05-03T07:56:09.660Z,17.50
2018-05-03T07:58:38.147Z,17.77
2018-05-03T08:01:05.941Z,17.70
2018-05-03T08:03:33.743Z,17.90
2018-05-03T08:06:01.541Z,18.83
2018-05-03T08:08:29.274Z,16.70
2018-05-03T08:10:57.044Z,17.37
2018-05-03T08:13:24.779Z,17.53
2018-05-03T08:15:52.551Z,17.33
2018-05-03T08:18:20.293Z,15.87
2018-05-03T08:20:48.780Z,16.57
2018-05-03T08:23:16.527Z,17.00
2018-05-03T08:25:44.282Z,15.90
2018-05-03T08:28:12.817Z,17.17
2018-05-03T08:30:40.548Z,17.67
2018-05-03T08:33:08.339Z,16.67
2018-05-03T08:35:36.077Z,15.00
2018-05-03T08:38:03.826Z,18.07
2018-05-03T08:40:31.539Z,16.70
2018-05-03T08:42:59.284Z,17.33
2018-05-03T08:45:27.003Z,16.63
2018-05-03T08:47:54.845Z,16.90
2018-05-03T08:50:23.341Z,16.00
2018-05-03T08:52:51.831Z,16.43
2018-05-03T08:55:19.891Z,17.33
2018-05-03T08:57:48.400Z,16.90
2018-05-03T09:00:16.167Z,14.60
2018-05-03T09:02:43.945Z,18.00
2018-05-03T09:05:11.698Z,17.73
2018-05-03T09:07:39.465Z,16.20
2018-05-03T09:10:07.240Z,17.57
2018-05-03T09:12:34.967Z,18.77
2018-05-03T09:15:02.737Z,16.70
2018-05-03T09:17:30.538Z,15.17
2018-05-03T09:19:58.320Z,16.40
2018-05-03T09:22:26.911Z,16.07
2018-05-03T09:24:54.577Z,15.20
2018-05-03T09:27:22.379Z,15.70
2018-05-03T09:29:50.115Z,15.63
2018-05-03T09:32:17.886Z,14.90
2018-05-03T09:34:47.625Z,18.83
2018-05-03T09:37:15.400Z,18.03
2018-05-03T09:39:43.146Z,18.90
2018-05-03T09:42:10.933Z,19.40
2018-05-03T09:44:39.427Z,20.02
2018-05-03T09:47:07.259Z,18.60
2018-05-03T09:49:34.991Z,18.85
2018-05-03T09:52:02.778Z,18.15
2018-05-03T09:54:30.501Z,18.05
2018-05-03T09:56:58.228Z,20.33
2018-05-03T09:59:26.773Z,18.50
2018-05-03T10:01:55.301Z,20.98
2018-05-03T10:04:23.080Z,20.50
2018-05-03T10:06:50.799Z,19.50
2018-05-03T10:09:19.324Z,19.52
2018-05-03T10:11:47.051Z,18.50
2018-05-03T10:14:15.568Z,18.92
2018-05-03T10:16:43.332Z,19.33
2018-05-03T10:19:11.113Z,18.55
2018-05-03T10:21:38.829Z,19.75
2018-05-03T10:24:06.625Z,18.62
2018-05-03T10:26:34.352Z,18.42
2018-05-03T10:29:02.067Z,17.98
2018-05-03T10:31:29.820Z,19.87
2018-05-03T10:33:57.548Z,19.50
2018-05-03T10:36:25.303Z,17.95
2018-05-03T10:38:53.033Z,17.02
2018-05-03T10:41:20.780Z,19.05
2018-05-03T10:43:48.519Z,18.00
2018-05-03T10:46:16.275Z,17.85
2018-05-03T10:48:44.023Z,15.05
2018-05-03T10:51:11.818Z,16.80
2018-05-03T10:53:39.537Z,17.10
2018-05-03T10:56:07.326Z,17.45
2018-05-03T10:58:35.042Z,15.57
2018-05-03T11:01:03.534Z,16.25
2018-05-03T11:03:31.279Z,14.95
2018-05-03T11:05:59.774Z,15.40
2018-05-03T11:08:27.561Z,15.93
2018-05-03T11:10:55.284Z,17.12
2018-05-03T11:13:23.805Z,16.42
2018-05-03T11:15:51.527Z,15.68
2018-05-03T11:18:19.280Z,14.40
2018-05-03T11:20:47.764Z,16.10
2018-05-03T11:23:16.278Z,14.00
2018-05-03T11:25:44.020Z,14.50
2018-05-03T11:28:11.736Z,14.43
2018-05-03T11:30:39.488Z,12.68
2018-05-03T11:33:07.206Z,12.82
2018-05-03T11:35:34.968Z,13.20
2018-05-03T11:38:02.691Z,12.10
2018-05-03T11:40:30.459Z,12.32
2018-05-03T11:42:58.175Z,9.73
2018-05-03T11:45:25.939Z,8.57
2018-05-03T11:47:53.651Z,9.30
2018-05-03T11:50:22.162Z,7.05
2018-05-03T11:52:49.876Z,8.90
2018-05-03T11:55:17.647Z,8.43
2018-05-03T11:57:45.383Z,12.35
2018-05-03T12:00:13.116Z,10.85
2018-05-03T12:02:40.861Z,11.45
2018-05-03T12:05:08.572Z,10.43
2018-05-03T12:07:36.317Z,10.15
2018-05-03T12:10:04.036Z,9.23
2018-05-03T12:12:31.820Z,9.75
2018-05-03T12:14:59.526Z,9.07
2018-05-03T12:17:27.278Z,9.70
2018-05-03T12:19:55.009Z,11.02
2018-05-03T12:22:22.761Z,10.55
2018-05-03T12:24:50.495Z,10.60
2018-05-03T12:27:18.986Z,8.77
2018-05-03T12:29:46.747Z,9.75
2018-05-03T12:32:14.504Z,9.95
2018-05-03T12:34:42.254Z,9.50
2018-05-03T12:37:10.760Z,11.07
2018-05-03T12:39:38.528Z,11.55
2018-05-03T12:42:06.256Z,11.48
2018-05-03T12:44:34.048Z,9.68
2018-05-03T12:47:01.778Z,8.70
2018-05-03T12:49:30.311Z,10.73
2018-05-03T12:51:58.034Z,10.32
2018-05-03T12:54:25.822Z,8.77
2018-05-03T12:56:54.366Z,9.43
2018-05-03T12:59:22.116Z,9.57
2018-05-03T13:01:50.657Z,10.90
2018-05-03T13:04:18.378Z,10.35
2018-05-03T13:06:46.157Z,11.43
2018-05-03T13:09:13.891Z,11.23
2018-05-03T13:11:42.403Z,10.55
2018-05-03T13:14:10.208Z,11.20
2018-05-03T13:16:37.931Z,10.48
2018-05-03T13:19:05.644Z,11.12
2018-05-03T13:21:34.155Z,11.95
2018-05-03T13:24:01.881Z,11.30
2018-05-03T13:26:30.434Z,12.00
2018-05-03T13:28:58.154Z,11.95
2018-05-03T13:31:25.898Z,12.20
2018-05-03T13:33:54.429Z,11.38
2018-05-03T13:36:22.150Z,11.73
2018-05-03T13:38:49.940Z,11.65
2018-05-03T13:41:17.698Z,11.05
2018-05-03T13:43:45.468Z,12.00
2018-05-03T13:46:13.186Z,12.82
2018-05-03T13:48:41.716Z,13.45
2018-05-03T13:51:09.447Z,13.50
2018-05-03T13:53:37.217Z,14.70
2018-05-03T13:56:04.945Z,15.30
2018-05-03T13:58:33.492Z,16.95
2018-05-03T14:01:01.223Z,16.92
2018-05-03T14:03:28.946Z,16.85
2018-05-03T14:05:56.697Z,17.95
2018-05-03T14:08:24.430Z,17.40
2018-05-03T14:10:52.189Z,16.25
2018-05-03T14:13:19.911Z,17.90
2018-05-03T14:15:47.666Z,18.05
2018-05-03T14:18:15.377Z,17.55
2018-05-03T14:20:43.201Z,18.83
2018-05-03T14:23:10.923Z,17.37
2018-05-03T14:25:38.704Z,17.85
2018-05-03T14:28:07.196Z,17.33
2018-05-03T14:30:34.929Z,15.38
2018-05-03T14:33:02.695Z,18.60
2018-05-03T14:35:31.202Z,17.50
2018-05-03T14:37:58.958Z,18.83
2018-05-03T14:40:26.675Z,17.15
2018-05-03T14:42:54.415Z,17.00
2018-05-03T14:45:22.153Z,18.85
2018-05-03T14:47:49.903Z,18.48
2018-05-03T14:50:17.634Z,18.15
2018-05-03T14:52:46.161Z,16.80
2018-05-03T14:55:13.933Z,16.70
2018-05-03T14:57:41.709Z,17.17
2018-05-03T15:00:09.477Z,17.42
2018-05-03T15:02:37.971Z,17.40
2018-05-03T15:05:05.720Z,15.77
2018-05-03T15:07:33.447Z,16.70
2018-05-03T15:10:01.197Z,15.52
2018-05-03T15:12:28.910Z,15.30
2018-05-03T15:14:56.659Z,13.48
2018-05-03T15:17:24.384Z,15.30
2018-05-03T15:19:52.143Z,13.07
2018-05-03T15:22:19.858Z,13.05
2018-05-03T15:24:47.617Z,12.75
2018-05-03T15:27:15.335Z,12.77
2018-05-03T15:29:43.153Z,13.40
2018-05-03T15:32:10.859Z,12.95
2018-05-03T15:34:38.603Z,11.70
2018-05-03T15:37:06.361Z,11.20
2018-05-03T15:39:34.833Z,9.40
2018-05-03T15:42:03.350Z,9.23
2018-05-03T15:44:31.063Z,8.00
2018-05-03T15:46:59.588Z,7.00
2018-05-03T15:49:27.295Z,7.15
2018-05-03T15:51:55.032Z,7.53
2018-05-03T15:54:22.742Z,8.13
2018-05-03T15:56:51.251Z,7.93
2018-05-03T15:59:18.959Z,8.40
2018-05-03T16:01:46.732Z,9.23
2018-05-03T16:04:15.209Z,9.70
2018-05-03T16:06:43.723Z,9.15
2018-05-03T16:09:11.479Z,9.00
2018-05-03T16:11:39.205Z,8.55
2018-05-03T16:14:07.717Z,9.13
2018-05-03T16:16:35.447Z,9.73
2018-05-03T16:19:03.981Z,10.77
2018-05-03T16:21:31.715Z,9.80
2018-05-03T16:23:59.482Z,9.25
2018-05-03T16:26:27.197Z,10.50
2018-05-03T16:28:55.771Z,10.43
2018-05-03T16:31:23.518Z,10.10
2018-05-03T16:33:51.244Z,10.02
2018-05-03T16:36:19.023Z,11.12
2018-05-03T16:38:46.764Z,11.90
2018-05-03T16:41:14.529Z,13.25
2018-05-03T16:43:42.243Z,13.07
2018-05-03T16:46:10.016Z,14.15
2018-05-03T16:48:37.770Z,14.45
2018-05-03T16:51:05.528Z,13.73
2018-05-03T16:53:33.246Z,14.68
2018-05-03T16:56:00.991Z,16.92
2018-05-03T16:58:28.717Z,15.75
2018-05-03T17:00:56.559Z,17.50
2018-05-03T17:03:24.331Z,16.87
2018-05-03T17:05:52.060Z,16.25
2018-05-03T17:08:21.342Z,18.12
2018-05-03T17:10:49.090Z,17.50
2018-05-03T17:13:16.848Z,18.17
2018-05-03T17:15:45.333Z,17.70
2018-05-03T17:18:13.856Z,17.25
2018-05-03T17:20:41.589Z,18.95
2018-05-03T17:23:09.329Z,17.80
2018-05-03T17:25:37.814Z,19.75
2018-05-03T17:28:05.582Z,17.25
2018-05-03T17:30:33.302Z,20.35
2018-05-03T17:33:01.090Z,18.37
2018-05-03T17:35:29.746Z,17.73
2018-05-03T17:37:57.524Z,17.85
2018-05-03T17:40:26.069Z,19.17
2018-05-03T17:42:53.800Z,21.55
2018-05-03T17:45:21.551Z,18.83
2018-05-03T17:47:49.291Z,20.40
2018-05-03T17:50:17.814Z,19.08
2018-05-03T17:52:45.527Z,18.70
2018-05-03T17:55:14.064Z,17.40
2018-05-03T17:57:41.805Z,20.60
2018-05-03T18:00:09.715Z,17.50
2018-05-03T18:02:37.450Z,20.70
2018-05-03T18:05:05.258Z,16.75
2018-05-03T18:07:33.007Z,19.10
2018-05-03T18:10:00.745Z,18.73
2018-05-03T18:12:28.495Z,20.23
2018-05-03T18:14:56.206Z,19.02
2018-05-03T18:17:24.718Z,20.58
2018-05-03T18:19:52.436Z,18.75
2018-05-03T18:22:20.805Z,20.52
2018-05-03T18:24:48.566Z,18.90
2018-05-03T18:27:16.321Z,21.37
2018-05-03T18:29:44.757Z,19.67
2018-05-03T18:32:12.813Z,20.20
2018-05-03T18:34:40.555Z,22.35
2018-05-03T18:37:09.152Z,20.62
2018-05-03T18:39:36.871Z,21.80
2018-05-03T18:42:04.597Z,19.77
2018-05-03T18:44:32.369Z,19.73
2018-05-03T18:47:00.087Z,19.95
2018-05-03T18:49:28.631Z,20.65
2018-05-03T18:51:56.410Z,21.00
2018-05-03T18:54:24.216Z,21.02
2018-05-03T18:56:51.945Z,19.33
2018-05-03T18:59:20.462Z,21.30
2018-05-03T19:01:48.190Z,19.30
2018-05-03T19:04:16.740Z,22.70
2018-05-03T19:06:44.535Z,21.60
2018-05-03T19:09:12.439Z,20.35
2018-05-03T19:11:40.211Z,20.80
2018-05-03T19:14:08.003Z,21.20
2018-05-03T19:16:35.942Z,22.20
2018-05-03T19:19:03.716Z,19.30
2018-05-03T19:21:31.639Z,20.00
2018-05-03T19:23:59.374Z,20.15
2018-05-03T19:26:27.128Z,21.02
2018-05-03T19:28:54.973Z,20.35
2018-05-03T19:31:22.735Z,19.37
2018-05-03T19:33:50.450Z,21.95
2018-05-03T19:36:33.082Z,20.45
2018-05-03T19:39:13.960Z,22.15
2018-05-03T19:41:42.307Z,20.37
2018-05-03T19:44:10.038Z,21.30
2018-05-03T19:46:38.527Z,20.30
2018-05-03T19:49:06.319Z,20.92
2018-05-03T19:51:34.050Z,19.15
2018-05-03T19:54:02.664Z,20.83
2018-05-03T19:56:30.380Z,19.20
2018-05-03T19:58:58.898Z,19.23
2018-05-03T20:01:26.698Z,19.98
2018-05-03T20:03:54.449Z,19.25
2018-05-03T20:06:22.285Z,19.83
2018-05-03T20:08:50.130Z,19.50
2018-05-03T20:11:17.859Z,22.00
2018-05-03T20:13:45.595Z,18.25
2018-05-03T20:16:13.364Z,19.10
2018-05-03T20:18:41.088Z,19.62
2018-05-03T20:21:08.836Z,22.65
2018-05-03T20:23:37.333Z,20.25
2018-05-03T20:26:05.099Z,21.62
2018-05-03T20:28:32.830Z,20.50
2018-05-03T20:31:01.368Z,21.90
2018-05-03T20:33:29.859Z,22.02
2018-05-03T20:35:57.618Z,19.52
2018-05-03T20:38:25.342Z,21.02
2018-05-03T20:40:53.109Z,20.58
2018-05-03T20:43:20.825Z,20.12
2018-05-03T20:45:49.410Z,20.33
2018-05-03T20:48:17.137Z,21.65
2018-05-03T20:50:44.887Z,20.20
2018-05-03T20:53:12.743Z,20.40
2018-05-03T20:55:40.455Z,20.35
2018-05-03T20:58:09.015Z,19.90
2018-05-03T21:00:36.873Z,19.62
2018-05-03T21:03:04.623Z,19.27
2018-05-03T21:05:32.354Z,18.35
2018-05-03T21:08:00.158Z,18.35
2018-05-03T21:10:27.911Z,19.30
2018-05-03T21:12:55.658Z,18.08
2018-05-03T21:15:23.443Z,17.62
2018-05-03T21:17:51.167Z,17.73
2018-05-03T21:20:18.919Z,17.77
2018-05-03T21:22:46.638Z,20.25
2018-05-03T21:25:15.266Z,18.12
2018-05-03T21:27:43.026Z,19.05
2018-05-03T21:30:10.782Z,18.67
2018-05-03T21:32:38.599Z,18.95
2018-05-03T21:35:07.370Z,17.55
2018-05-03T21:37:36.069Z,17.15
2018-05-03T21:40:04.082Z,18.23
2018-05-03T21:42:31.830Z,16.58
2018-05-03T21:45:00.339Z,18.48
2018-05-03T21:47:28.093Z,17.35
2018-05-03T21:49:55.839Z,18.52
2018-05-03T21:52:23.650Z,16.42
2018-05-03T21:54:51.473Z,17.67
2018-05-03T21:57:19.360Z,17.10
2018-05-03T21:59:47.103Z,16.10
2018-05-03T22:02:14.896Z,16.42
2018-05-03T22:04:42.798Z,18.02
2018-05-03T22:07:11.340Z,16.85
2018-05-03T22:09:39.824Z,17.23
2018-05-03T22:12:07.562Z,15.93
2018-05-03T22:14:35.307Z,16.95
2018-05-03T22:17:03.028Z,17.77
2018-05-03T22:19:30.791Z,14.50
2018-05-03T22:21:59.306Z,15.40
2018-05-03T22:24:27.070Z,16.37
2018-05-03T22:26:54.785Z,15.93
2018-05-03T22:29:22.553Z,14.73
2018-05-03T22:31:50.288Z,14.02
2018-05-03T22:34:18.049Z,12.65
2018-05-03T22:36:45.795Z,11.88
2018-05-03T22:39:13.567Z,11.68
2018-05-03T22:41:41.306Z,10.27
2018-05-03T22:44:09.042Z,9.70
2018-05-03T22:46:37.565Z,11.12
2018-05-03T22:49:05.288Z,10.60
2018-05-03T22:51:33.795Z,11.00
2018-05-03T22:54:01.526Z,9.85
2018-05-03T22:56:30.091Z,9.77
2018-05-03T22:58:57.824Z,10.30
2018-05-03T23:01:25.574Z,10.68
2018-05-03T23:03:53.291Z,11.27
2018-05-03T23:06:21.044Z,11.10
2018-05-03T23:08:48.791Z,12.70
2018-05-03T23:11:16.524Z,12.10
2018-05-03T23:13:44.289Z,12.98
2018-05-03T23:16:12.077Z,13.75
2018-05-03T23:18:39.833Z,13.15
2018-05-03T23:21:07.571Z,12.37
2018-05-03T23:23:35.394Z,13.35
2018-05-03T23:26:03.128Z,12.30
2018-05-03T23:28:31.684Z,13.18
2018-05-03T23:30:59.428Z,15.10
2018-05-03T23:33:27.189Z,11.50
2018-05-03T23:35:54.911Z,13.13
2018-05-03T23:38:23.447Z,12.75
2018-05-03T23:40:51.926Z,12.40
2018-05-03T23:43:19.651Z,13.55
2018-05-03T23:45:47.401Z,13.18
2018-05-03T23:48:15.218Z,12.70
2018-05-03T23:50:42.945Z,11.90
2018-05-03T23:53:10.680Z,15.48
2018-05-03T23:55:38.455Z,13.25
2018-05-03T23:58:06.177Z,13.45
